sensor_id;sensor_type;location;lat;lon;timestamp;P1;durP1;ratioP1;P2;durP2;ratioP2
6442;SDS011;3254;47.372;8.512;2022-08-21T00:02:13;101.93;;;23.17;;
6442;SDS011;3254;47.372;8.512;2022-08-21T00:04:43;94.70;;;22.20;;
6442;SDS011;3254;47.372;8.512;2022-08-21T00:07:10;60.00;;;20.73;;
6442;SDS011;3254;47.372;8.512;2022-08-21T00:09:36;95.27;;;21.23;;
6442;SDS011;3254;47.372;8.512;2022-08-21T00:12:02;43.47;;;18.97;;
6442;SDS011;3254;47.372;8.512;2022-08-21T00:14:28;62.73;;;23.10;;
6442;SDS011;3254;47.372;8.512;2022-08-21T00:16:54;44.13;;;20.97;;
6442;SDS011;3254;47.372;8.512;2022-08-21T00:19:20;38.10;;;18.13;;
6442;SDS011;3254;47.372;8.512;2022-08-21T00:21:49;35.60;;;17.10;;
6442;SDS011;3254;47.372;8.512;2022-08-21T00:24:16;28.47;;;15.07;;
6442;SDS011;3254;47.372;8.512;2022-08-21T00:26:43;18.90;;;11.77;;
6442;SDS011;3254;47.372;8.512;2022-08-21T00:29:09;20.40;;;11.03;;
6442;SDS011;3254;47.372;8.512;2022-08-21T00:31:35;24.97;;;13.40;;
6442;SDS011;3254;47.372;8.512;2022-08-21T00:34:01;16.63;;;11.40;;
6442;SDS011;3254;47.372;8.512;2022-08-21T00:36:27;19.23;;;11.37;;
6442;SDS011;3254;47.372;8.512;2022-08-21T00:38:53;21.27;;;12.27;;
6442;SDS011;3254;47.372;8.512;2022-08-21T00:41:18;25.03;;;13.27;;
6442;SDS011;3254;47.372;8.512;2022-08-21T00:43:44;26.60;;;13.47;;
6442;SDS011;3254;47.372;8.512;2022-08-21T00:46:10;25.00;;;13.00;;
6442;SDS011;3254;47.372;8.512;2022-08-21T00:48:35;40.90;;;17.47;;
6442;SDS011;3254;47.372;8.512;2022-08-21T00:51:05;49.03;;;17.50;;
6442;SDS011;3254;47.372;8.512;2022-08-21T00:53:47;73.97;;;18.50;;
6442;SDS011;3254;47.372;8.512;2022-08-21T00:56:18;45.80;;;19.60;;
6442;SDS011;3254;47.372;8.512;2022-08-21T00:58:45;45.67;;;19.13;;
6442;SDS011;3254;47.372;8.512;2022-08-21T01:01:12;59.63;;;19.33;;
6442;SDS011;3254;47.372;8.512;2022-08-21T01:03:38;46.47;;;19.70;;
6442;SDS011;3254;47.372;8.512;2022-08-21T01:06:04;46.43;;;19.17;;
6442;SDS011;3254;47.372;8.512;2022-08-21T01:08:31;62.03;;;21.53;;
6442;SDS011;3254;47.372;8.512;2022-08-21T01:10:58;76.90;;;21.57;;
6442;SDS011;3254;47.372;8.512;2022-08-21T01:13:24;81.80;;;21.83;;
6442;SDS011;3254;47.372;8.512;2022-08-21T01:15:52;103.27;;;23.53;;
6442;SDS011;3254;47.372;8.512;2022-08-21T01:18:21;71.63;;;23.07;;
6442;SDS011;3254;47.372;8.512;2022-08-21T01:21:31;127.90;;;23.93;;
6442;SDS011;3254;47.372;8.512;2022-08-21T01:23:44;108.47;;;24.30;;
6442;SDS011;3254;47.372;8.512;2022-08-21T01:26:13;107.23;;;24.33;;
6442;SDS011;3254;47.372;8.512;2022-08-21T01:28:46;92.17;;;23.73;;
6442;SDS011;3254;47.372;8.512;2022-08-21T01:31:35;126.53;;;24.90;;
6442;SDS011;3254;47.372;8.512;2022-08-21T01:34:02;81.03;;;24.17;;
6442;SDS011;3254;47.372;8.512;2022-08-21T01:36:29;64.17;;;21.83;;
6442;SDS011;3254;47.372;8.512;2022-08-21T01:38:55;103.80;;;27.47;;
6442;SDS011;3254;47.372;8.512;2022-08-21T01:41:21;70.57;;;25.10;;
6442;SDS011;3254;47.372;8.512;2022-08-21T01:43:47;119.13;;;29.23;;
6442;SDS011;3254;47.372;8.512;2022-08-21T01:46:13;72.67;;;25.70;;
6442;SDS011;3254;47.372;8.512;2022-08-21T01:48:39;74.57;;;25.00;;
6442;SDS011;3254;47.372;8.512;2022-08-21T01:51:05;75.00;;;27.90;;
6442;SDS011;3254;47.372;8.512;2022-08-21T01:53:31;63.90;;;24.57;;
6442;SDS011;3254;47.372;8.512;2022-08-21T01:56:00;68.27;;;25.40;;
6442;SDS011;3254;47.372;8.512;2022-08-21T01:58:27;59.60;;;24.30;;
6442;SDS011;3254;47.372;8.512;2022-08-21T02:00:53;55.70;;;22.13;;
6442;SDS011;3254;47.372;8.512;2022-08-21T02:03:19;58.27;;;22.60;;
6442;SDS011;3254;47.372;8.512;2022-08-21T02:05:45;48.03;;;21.03;;
6442;SDS011;3254;47.372;8.512;2022-08-21T02:08:10;50.97;;;21.60;;
6442;SDS011;3254;47.372;8.512;2022-08-21T02:10:36;49.93;;;20.10;;
6442;SDS011;3254;47.372;8.512;2022-08-21T02:13:02;59.60;;;23.50;;
6442;SDS011;3254;47.372;8.512;2022-08-21T02:15:28;49.73;;;21.40;;
6442;SDS011;3254;47.372;8.512;2022-08-21T02:17:55;48.57;;;21.30;;
6442;SDS011;3254;47.372;8.512;2022-08-21T02:20:25;60.80;;;23.60;;
6442;SDS011;3254;47.372;8.512;2022-08-21T02:22:56;48.27;;;20.60;;
6442;SDS011;3254;47.372;8.512;2022-08-21T02:25:22;47.03;;;21.43;;
6442;SDS011;3254;47.372;8.512;2022-08-21T02:27:49;57.00;;;23.03;;
6442;SDS011;3254;47.372;8.512;2022-08-21T02:30:17;50.60;;;21.47;;
6442;SDS011;3254;47.372;8.512;2022-08-21T02:32:45;51.50;;;22.53;;
6442;SDS011;3254;47.372;8.512;2022-08-21T02:35:11;43.27;;;21.77;;
6442;SDS011;3254;47.372;8.512;2022-08-21T02:37:47;40.33;;;19.40;;
6442;SDS011;3254;47.372;8.512;2022-08-21T02:40:15;40.80;;;21.17;;
6442;SDS011;3254;47.372;8.512;2022-08-21T02:42:43;38.63;;;20.90;;
6442;SDS011;3254;47.372;8.512;2022-08-21T02:45:09;40.03;;;19.93;;
6442;SDS011;3254;47.372;8.512;2022-08-21T02:47:36;41.80;;;19.47;;
6442;SDS011;3254;47.372;8.512;2022-08-21T02:50:03;47.40;;;21.07;;
6442;SDS011;3254;47.372;8.512;2022-08-21T02:52:29;47.43;;;21.87;;
6442;SDS011;3254;47.372;8.512;2022-08-21T02:54:55;42.77;;;20.97;;
6442;SDS011;3254;47.372;8.512;2022-08-21T02:57:20;45.90;;;22.60;;
6442;SDS011;3254;47.372;8.512;2022-08-21T02:59:46;44.07;;;20.90;;
6442;SDS011;3254;47.372;8.512;2022-08-21T03:02:12;43.33;;;20.20;;
6442;SDS011;3254;47.372;8.512;2022-08-21T03:04:37;39.50;;;18.43;;
6442;SDS011;3254;47.372;8.512;2022-08-21T03:07:03;43.67;;;19.77;;
6442;SDS011;3254;47.372;8.512;2022-08-21T03:09:29;31.70;;;17.80;;
6442;SDS011;3254;47.372;8.512;2022-08-21T03:11:54;35.67;;;19.50;;
6442;SDS011;3254;47.372;8.512;2022-08-21T03:14:20;32.53;;;16.00;;
6442;SDS011;3254;47.372;8.512;2022-08-21T03:16:46;31.27;;;17.20;;
6442;SDS011;3254;47.372;8.512;2022-08-21T03:19:11;28.67;;;16.20;;
6442;SDS011;3254;47.372;8.512;2022-08-21T03:21:38;28.80;;;15.67;;
6442;SDS011;3254;47.372;8.512;2022-08-21T03:24:03;31.23;;;17.40;;
6442;SDS011;3254;47.372;8.512;2022-08-21T03:26:29;30.50;;;17.40;;
6442;SDS011;3254;47.372;8.512;2022-08-21T03:28:55;26.77;;;15.67;;
6442;SDS011;3254;47.372;8.512;2022-08-21T03:31:22;27.10;;;16.23;;
6442;SDS011;3254;47.372;8.512;2022-08-21T03:33:48;25.13;;;15.73;;
6442;SDS011;3254;47.372;8.512;2022-08-21T03:36:14;22.50;;;14.27;;
6442;SDS011;3254;47.372;8.512;2022-08-21T03:38:40;26.27;;;16.00;;
6442;SDS011;3254;47.372;8.512;2022-08-21T03:41:06;31.60;;;18.57;;
6442;SDS011;3254;47.372;8.512;2022-08-21T03:43:33;20.00;;;15.93;;
6442;SDS011;3254;47.372;8.512;2022-08-21T03:46:02;17.30;;;14.87;;
6442;SDS011;3254;47.372;8.512;2022-08-21T03:48:29;17.93;;;14.13;;
6442;SDS011;3254;47.372;8.512;2022-08-21T03:50:55;15.73;;;13.60;;
6442;SDS011;3254;47.372;8.512;2022-08-21T03:53:21;24.40;;;14.40;;
6442;SDS011;3254;47.372;8.512;2022-08-21T03:55:48;14.93;;;13.30;;
6442;SDS011;3254;47.372;8.512;2022-08-21T03:58:16;22.07;;;14.20;;
6442;SDS011;3254;47.372;8.512;2022-08-21T04:00:44;18.73;;;13.00;;
6442;SDS011;3254;47.372;8.512;2022-08-21T04:03:11;13.70;;;12.10;;
6442;SDS011;3254;47.372;8.512;2022-08-21T04:05:37;16.07;;;11.90;;
6442;SDS011;3254;47.372;8.512;2022-08-21T04:08:03;14.57;;;12.23;;
6442;SDS011;3254;47.372;8.512;2022-08-21T04:10:31;13.20;;;11.80;;
6442;SDS011;3254;47.372;8.512;2022-08-21T04:12:58;14.43;;;11.10;;
6442;SDS011;3254;47.372;8.512;2022-08-21T04:15:24;9.30;;;8.50;;
6442;SDS011;3254;47.372;8.512;2022-08-21T04:17:51;8.83;;;8.00;;
6442;SDS011;3254;47.372;8.512;2022-08-21T04:20:17;8.77;;;8.07;;
6442;SDS011;3254;47.372;8.512;2022-08-21T04:22:44;7.97;;;7.33;;
6442;SDS011;3254;47.372;8.512;2022-08-21T04:25:11;8.30;;;7.50;;
6442;SDS011;3254;47.372;8.512;2022-08-21T04:27:38;9.50;;;8.60;;
6442;SDS011;3254;47.372;8.512;2022-08-21T04:30:07;8.43;;;7.73;;
6442;SDS011;3254;47.372;8.512;2022-08-21T04:32:34;11.43;;;9.10;;
6442;SDS011;3254;47.372;8.512;2022-08-21T04:35:03;17.50;;;12.97;;
6442;SDS011;3254;47.372;8.512;2022-08-21T04:37:31;20.67;;;15.77;;
6442;SDS011;3254;47.372;8.512;2022-08-21T04:39:57;13.23;;;11.83;;
6442;SDS011;3254;47.372;8.512;2022-08-21T04:42:23;13.90;;;11.23;;
6442;SDS011;3254;47.372;8.512;2022-08-21T04:44:50;14.23;;;10.37;;
6442;SDS011;3254;47.372;8.512;2022-08-21T04:47:16;11.90;;;10.70;;
6442;SDS011;3254;47.372;8.512;2022-08-21T04:49:43;10.90;;;9.80;;
6442;SDS011;3254;47.372;8.512;2022-08-21T04:52:09;12.07;;;10.83;;
6442;SDS011;3254;47.372;8.512;2022-08-21T04:54:36;11.60;;;9.70;;
6442;SDS011;3254;47.372;8.512;2022-08-21T04:57:04;11.03;;;9.07;;
6442;SDS011;3254;47.372;8.512;2022-08-21T04:59:40;10.13;;;8.93;;
6442;SDS011;3254;47.372;8.512;2022-08-21T05:02:12;10.10;;;8.10;;
6442;SDS011;3254;47.372;8.512;2022-08-21T05:04:43;13.90;;;8.10;;
6442;SDS011;3254;47.372;8.512;2022-08-21T05:07:15;11.43;;;8.63;;
6442;SDS011;3254;47.372;8.512;2022-08-21T05:09:45;8.37;;;7.60;;
6442;SDS011;3254;47.372;8.512;2022-08-21T05:12:11;7.03;;;6.57;;
6442;SDS011;3254;47.372;8.512;2022-08-21T05:14:37;8.13;;;7.43;;
6442;SDS011;3254;47.372;8.512;2022-08-21T05:17:03;6.73;;;6.23;;
6442;SDS011;3254;47.372;8.512;2022-08-21T05:19:29;7.43;;;6.83;;
6442;SDS011;3254;47.372;8.512;2022-08-21T05:21:55;8.33;;;6.13;;
6442;SDS011;3254;47.372;8.512;2022-08-21T05:24:21;7.33;;;6.63;;
6442;SDS011;3254;47.372;8.512;2022-08-21T05:26:46;6.90;;;5.87;;
6442;SDS011;3254;47.372;8.512;2022-08-21T05:29:13;4.93;;;4.63;;
6442;SDS011;3254;47.372;8.512;2022-08-21T05:31:39;4.73;;;4.43;;
6442;SDS011;3254;47.372;8.512;2022-08-21T05:34:04;4.47;;;4.10;;
6442;SDS011;3254;47.372;8.512;2022-08-21T05:36:30;4.23;;;3.90;;
6442;SDS011;3254;47.372;8.512;2022-08-21T05:38:56;4.97;;;4.30;;
6442;SDS011;3254;47.372;8.512;2022-08-21T05:41:21;4.30;;;4.10;;
6442;SDS011;3254;47.372;8.512;2022-08-21T05:43:47;3.77;;;3.57;;
6442;SDS011;3254;47.372;8.512;2022-08-21T05:46:13;3.27;;;3.10;;
6442;SDS011;3254;47.372;8.512;2022-08-21T05:48:38;4.50;;;4.27;;
6442;SDS011;3254;47.372;8.512;2022-08-21T05:51:08;5.90;;;5.50;;
6442;SDS011;3254;47.372;8.512;2022-08-21T05:53:36;5.70;;;5.30;;
6442;SDS011;3254;47.372;8.512;2022-08-21T05:56:02;5.70;;;5.40;;
6442;SDS011;3254;47.372;8.512;2022-08-21T05:58:30;5.03;;;4.73;;
6442;SDS011;3254;47.372;8.512;2022-08-21T06:00:58;5.20;;;4.90;;
6442;SDS011;3254;47.372;8.512;2022-08-21T06:03:25;4.80;;;4.50;;
6442;SDS011;3254;47.372;8.512;2022-08-21T06:05:54;5.50;;;5.20;;
6442;SDS011;3254;47.372;8.512;2022-08-21T06:08:21;5.20;;;4.33;;
6442;SDS011;3254;47.372;8.512;2022-08-21T06:10:48;4.80;;;4.50;;
6442;SDS011;3254;47.372;8.512;2022-08-21T06:13:15;4.60;;;4.40;;
6442;SDS011;3254;47.372;8.512;2022-08-21T06:15:43;4.30;;;3.97;;
6442;SDS011;3254;47.372;8.512;2022-08-21T06:18:09;4.70;;;4.40;;
6442;SDS011;3254;47.372;8.512;2022-08-21T06:20:35;4.47;;;4.07;;
6442;SDS011;3254;47.372;8.512;2022-08-21T06:23:01;4.80;;;4.50;;
6442;SDS011;3254;47.372;8.512;2022-08-21T06:25:26;4.40;;;4.20;;
6442;SDS011;3254;47.372;8.512;2022-08-21T06:27:53;4.80;;;4.50;;
6442;SDS011;3254;47.372;8.512;2022-08-21T06:30:24;5.67;;;5.23;;
6442;SDS011;3254;47.372;8.512;2022-08-21T06:32:50;11.33;;;4.63;;
6442;SDS011;3254;47.372;8.512;2022-08-21T06:35:15;5.33;;;4.93;;
6442;SDS011;3254;47.372;8.512;2022-08-21T06:37:41;4.87;;;4.53;;
6442;SDS011;3254;47.372;8.512;2022-08-21T06:40:07;5.17;;;4.77;;
6442;SDS011;3254;47.372;8.512;2022-08-21T06:42:33;4.90;;;4.60;;
6442;SDS011;3254;47.372;8.512;2022-08-21T06:44:58;4.97;;;4.57;;
6442;SDS011;3254;47.372;8.512;2022-08-21T06:47:24;5.00;;;4.60;;
6442;SDS011;3254;47.372;8.512;2022-08-21T06:49:50;4.60;;;4.30;;
6442;SDS011;3254;47.372;8.512;2022-08-21T06:52:15;4.77;;;4.47;;
6442;SDS011;3254;47.372;8.512;2022-08-21T06:54:41;3.87;;;3.67;;
6442;SDS011;3254;47.372;8.512;2022-08-21T06:57:07;4.07;;;3.87;;
6442;SDS011;3254;47.372;8.512;2022-08-21T06:59:32;4.50;;;4.30;;
6442;SDS011;3254;47.372;8.512;2022-08-21T07:01:59;4.10;;;3.90;;
6442;SDS011;3254;47.372;8.512;2022-08-21T07:04:25;5.50;;;4.37;;
6442;SDS011;3254;47.372;8.512;2022-08-21T07:06:51;8.37;;;5.70;;
6442;SDS011;3254;47.372;8.512;2022-08-21T07:09:17;5.43;;;5.03;;
6442;SDS011;3254;47.372;8.512;2022-08-21T07:11:42;6.60;;;6.00;;
6442;SDS011;3254;47.372;8.512;2022-08-21T07:14:12;7.00;;;5.43;;
6442;SDS011;3254;47.372;8.512;2022-08-21T07:16:37;8.20;;;6.80;;
6442;SDS011;3254;47.372;8.512;2022-08-21T07:19:03;5.57;;;5.27;;
6442;SDS011;3254;47.372;8.512;2022-08-21T07:21:29;7.17;;;6.57;;
6442;SDS011;3254;47.372;8.512;2022-08-21T07:23:54;7.17;;;6.67;;
6442;SDS011;3254;47.372;8.512;2022-08-21T07:26:20;7.73;;;7.20;;
6442;SDS011;3254;47.372;8.512;2022-08-21T07:28:48;7.37;;;6.87;;
6442;SDS011;3254;47.372;8.512;2022-08-21T07:31:15;6.40;;;6.00;;
6442;SDS011;3254;47.372;8.512;2022-08-21T07:33:43;7.30;;;6.80;;
6442;SDS011;3254;47.372;8.512;2022-08-21T07:36:09;10.47;;;6.93;;
6442;SDS011;3254;47.372;8.512;2022-08-21T07:38:35;6.43;;;6.03;;
6442;SDS011;3254;47.372;8.512;2022-08-21T07:41:02;5.73;;;5.40;;
6442;SDS011;3254;47.372;8.512;2022-08-21T07:43:36;5.97;;;5.37;;
6442;SDS011;3254;47.372;8.512;2022-08-21T07:46:02;4.17;;;3.93;;
6442;SDS011;3254;47.372;8.512;2022-08-21T07:48:28;4.70;;;4.30;;
6442;SDS011;3254;47.372;8.512;2022-08-21T07:50:53;4.10;;;3.90;;
6442;SDS011;3254;47.372;8.512;2022-08-21T07:53:20;4.03;;;3.83;;
6442;SDS011;3254;47.372;8.512;2022-08-21T07:55:46;3.83;;;3.70;;
6442;SDS011;3254;47.372;8.512;2022-08-21T07:58:11;6.00;;;4.00;;
6442;SDS011;3254;47.372;8.512;2022-08-21T08:00:37;3.90;;;3.70;;
6442;SDS011;3254;47.372;8.512;2022-08-21T08:03:05;3.60;;;3.40;;
6442;SDS011;3254;47.372;8.512;2022-08-21T08:05:31;3.57;;;3.47;;
6442;SDS011;3254;47.372;8.512;2022-08-21T08:07:57;5.17;;;3.10;;
6442;SDS011;3254;47.372;8.512;2022-08-21T08:10:23;2.60;;;2.50;;
6442;SDS011;3254;47.372;8.512;2022-08-21T08:12:49;2.90;;;2.80;;
6442;SDS011;3254;47.372;8.512;2022-08-21T08:15:17;3.10;;;2.90;;
6442;SDS011;3254;47.372;8.512;2022-08-21T08:17:44;2.70;;;2.60;;
6442;SDS011;3254;47.372;8.512;2022-08-21T08:20:11;3.10;;;2.90;;
6442;SDS011;3254;47.372;8.512;2022-08-21T08:22:38;2.70;;;2.60;;
6442;SDS011;3254;47.372;8.512;2022-08-21T08:25:06;2.70;;;2.60;;
6442;SDS011;3254;47.372;8.512;2022-08-21T08:27:33;2.73;;;2.63;;
6442;SDS011;3254;47.372;8.512;2022-08-21T08:29:58;2.20;;;2.10;;
6442;SDS011;3254;47.372;8.512;2022-08-21T08:32:24;2.70;;;2.60;;
6442;SDS011;3254;47.372;8.512;2022-08-21T08:34:50;2.47;;;2.37;;
6442;SDS011;3254;47.372;8.512;2022-08-21T08:37:16;2.20;;;2.10;;
6442;SDS011;3254;47.372;8.512;2022-08-21T08:39:43;2.40;;;2.30;;
6442;SDS011;3254;47.372;8.512;2022-08-21T08:42:42;6.20;;;2.30;;
6442;SDS011;3254;47.372;8.512;2022-08-21T08:45:12;2.50;;;2.33;;
6442;SDS011;3254;47.372;8.512;2022-08-21T08:47:47;3.83;;;2.00;;
6442;SDS011;3254;47.372;8.512;2022-08-21T08:50:38;2.63;;;2.53;;
6442;SDS011;3254;47.372;8.512;2022-08-21T08:53:06;2.10;;;2.00;;
6442;SDS011;3254;47.372;8.512;2022-08-21T08:55:51;2.60;;;2.50;;
6442;SDS011;3254;47.372;8.512;2022-08-21T08:58:25;4.13;;;2.50;;
6442;SDS011;3254;47.372;8.512;2022-08-21T09:00:55;2.43;;;2.23;;
6442;SDS011;3254;47.372;8.512;2022-08-21T09:03:24;2.37;;;2.27;;
6442;SDS011;3254;47.372;8.512;2022-08-21T09:05:55;2.60;;;2.40;;
6442;SDS011;3254;47.372;8.512;2022-08-21T09:08:36;2.10;;;2.00;;
6442;SDS011;3254;47.372;8.512;2022-08-21T09:11:22;2.33;;;2.23;;
6442;SDS011;3254;47.372;8.512;2022-08-21T09:14:00;2.80;;;2.70;;
6442;SDS011;3254;47.372;8.512;2022-08-21T09:19:32;1.80;;;1.70;;
6442;SDS011;3254;47.372;8.512;2022-08-21T09:22:19;2.23;;;2.10;;
6442;SDS011;3254;47.372;8.512;2022-08-21T09:24:58;2.20;;;2.10;;
6442;SDS011;3254;47.372;8.512;2022-08-21T09:27:32;2.40;;;2.30;;
6442;SDS011;3254;47.372;8.512;2022-08-21T09:29:59;2.27;;;2.10;;
6442;SDS011;3254;47.372;8.512;2022-08-21T09:32:26;3.70;;;2.17;;
6442;SDS011;3254;47.372;8.512;2022-08-21T09:37:32;2.07;;;1.97;;
6442;SDS011;3254;47.372;8.512;2022-08-21T09:39:59;3.30;;;2.50;;
6442;SDS011;3254;47.372;8.512;2022-08-21T09:42:30;2.20;;;2.10;;
6442;SDS011;3254;47.372;8.512;2022-08-21T09:45:30;2.10;;;2.00;;
6442;SDS011;3254;47.372;8.512;2022-08-21T09:47:49;3.53;;;1.87;;
6442;SDS011;3254;47.372;8.512;2022-08-21T09:50:23;1.90;;;1.80;;
6442;SDS011;3254;47.372;8.512;2022-08-21T09:53:00;2.30;;;2.10;;
6442;SDS011;3254;47.372;8.512;2022-08-21T09:55:39;2.03;;;1.80;;
6442;SDS011;3254;47.372;8.512;2022-08-21T09:58:36;2.07;;;1.87;;
6442;SDS011;3254;47.372;8.512;2022-08-21T10:01:04;2.10;;;2.00;;
6442;SDS011;3254;47.372;8.512;2022-08-21T10:03:31;1.83;;;1.73;;
6442;SDS011;3254;47.372;8.512;2022-08-21T10:08:25;2.13;;;2.00;;
6442;SDS011;3254;47.372;8.512;2022-08-21T10:10:57;1.90;;;1.80;;
6442;SDS011;3254;47.372;8.512;2022-08-21T10:15:56;1.70;;;1.60;;
6442;SDS011;3254;47.372;8.512;2022-08-21T10:21:23;1.90;;;1.30;;
6442;SDS011;3254;47.372;8.512;2022-08-21T10:23:58;3.60;;;1.37;;
6442;SDS011;3254;47.372;8.512;2022-08-21T10:26:51;2.03;;;1.80;;
6442;SDS011;3254;47.372;8.512;2022-08-21T10:43:37;6.60;;;1.73;;
6442;SDS011;3254;47.372;8.512;2022-08-21T10:46:17;1.77;;;1.67;;
6442;SDS011;3254;47.372;8.512;2022-08-21T10:48:57;3.40;;;1.50;;
6442;SDS011;3254;47.372;8.512;2022-08-21T10:51:28;1.90;;;1.80;;
6442;SDS011;3254;47.372;8.512;2022-08-21T10:57:04;3.93;;;3.47;;
6442;SDS011;3254;47.372;8.512;2022-08-21T10:59:49;1.90;;;1.80;;
6442;SDS011;3254;47.372;8.512;2022-08-21T11:02:33;5.00;;;4.80;;
6442;SDS011;3254;47.372;8.512;2022-08-21T11:05:17;2.70;;;1.40;;
6442;SDS011;3254;47.372;8.512;2022-08-21T11:07:49;2.10;;;2.00;;
6442;SDS011;3254;47.372;8.512;2022-08-21T11:10:26;1.93;;;1.30;;
6442;SDS011;3254;47.372;8.512;2022-08-21T11:13:00;1.80;;;1.70;;
6442;SDS011;3254;47.372;8.512;2022-08-21T11:18:41;1.83;;;1.73;;
6442;SDS011;3254;47.372;8.512;2022-08-21T11:21:21;2.00;;;1.90;;
6442;SDS011;3254;47.372;8.512;2022-08-21T11:29:52;3.53;;;2.07;;
6442;SDS011;3254;47.372;8.512;2022-08-21T11:38:22;2.37;;;2.17;;
6442;SDS011;3254;47.372;8.512;2022-08-21T11:41:03;5.00;;;2.40;;
6442;SDS011;3254;47.372;8.512;2022-08-21T11:43:41;3.00;;;2.10;;
6442;SDS011;3254;47.372;8.512;2022-08-21T11:51:56;2.17;;;1.97;;
6442;SDS011;3254;47.372;8.512;2022-08-21T11:54:33;3.13;;;1.60;;
6442;SDS011;3254;47.372;8.512;2022-08-21T12:02:14;1.57;;;1.47;;
6442;SDS011;3254;47.372;8.512;2022-08-21T12:04:56;1.40;;;1.30;;
6442;SDS011;3254;47.372;8.512;2022-08-21T12:07:34;1.17;;;1.07;;
6442;SDS011;3254;47.372;8.512;2022-08-21T12:10:06;2.60;;;1.20;;
6442;SDS011;3254;47.372;8.512;2022-08-21T12:12:36;2.70;;;1.57;;
6442;SDS011;3254;47.372;8.512;2022-08-21T12:15:46;5.63;;;1.60;;
6442;SDS011;3254;47.372;8.512;2022-08-21T12:28:26;3.00;;;1.13;;
6442;SDS011;3254;47.372;8.512;2022-08-21T12:30:52;4.50;;;1.53;;
6442;SDS011;3254;47.372;8.512;2022-08-21T12:33:26;2.17;;;1.37;;
6442;SDS011;3254;47.372;8.512;2022-08-21T12:36:13;2.17;;;1.17;;
6442;SDS011;3254;47.372;8.512;2022-08-21T12:41:40;1.73;;;1.63;;
6442;SDS011;3254;47.372;8.512;2022-08-21T12:44:50;2.37;;;1.23;;
6442;SDS011;3254;47.372;8.512;2022-08-21T12:50:15;1.47;;;1.37;;
6442;SDS011;3254;47.372;8.512;2022-08-21T12:52:48;2.13;;;1.20;;
6442;SDS011;3254;47.372;8.512;2022-08-21T12:55:26;1.60;;;1.23;;
6442;SDS011;3254;47.372;8.512;2022-08-21T12:57:58;3.37;;;1.87;;
6442;SDS011;3254;47.372;8.512;2022-08-21T13:00:25;3.53;;;1.40;;
6442;SDS011;3254;47.372;8.512;2022-08-21T13:02:52;1.23;;;1.13;;
6442;SDS011;3254;47.372;8.512;2022-08-21T13:05:32;3.00;;;1.57;;
6442;SDS011;3254;47.372;8.512;2022-08-21T13:08:02;1.17;;;1.07;;
6442;SDS011;3254;47.372;8.512;2022-08-21T13:10:32;1.43;;;1.33;;
6442;SDS011;3254;47.372;8.512;2022-08-21T13:12:59;2.50;;;2.13;;
6442;SDS011;3254;47.372;8.512;2022-08-21T13:15:30;0.87;;;0.60;;
6442;SDS011;3254;47.372;8.512;2022-08-21T13:17:58;1.30;;;1.20;;
6442;SDS011;3254;47.372;8.512;2022-08-21T13:20:29;1.87;;;1.00;;
6442;SDS011;3254;47.372;8.512;2022-08-21T13:23:05;0.80;;;0.63;;
6442;SDS011;3254;47.372;8.512;2022-08-21T13:25:51;0.83;;;0.70;;
6442;SDS011;3254;47.372;8.512;2022-08-21T13:28:18;1.80;;;0.73;;
6442;SDS011;3254;47.372;8.512;2022-08-21T13:30:45;0.80;;;0.70;;
6442;SDS011;3254;47.372;8.512;2022-08-21T13:33:14;0.83;;;0.80;;
6442;SDS011;3254;47.372;8.512;2022-08-21T13:38:14;1.30;;;1.20;;
6442;SDS011;3254;47.372;8.512;2022-08-21T13:40:48;1.30;;;0.80;;
6442;SDS011;3254;47.372;8.512;2022-08-21T13:43:19;2.20;;;0.90;;
6442;SDS011;3254;47.372;8.512;2022-08-21T13:45:48;1.20;;;1.10;;
6442;SDS011;3254;47.372;8.512;2022-08-21T13:48:15;0.70;;;0.60;;
6442;SDS011;3254;47.372;8.512;2022-08-21T13:50:41;0.73;;;0.70;;
6442;SDS011;3254;47.372;8.512;2022-08-21T13:53:20;0.80;;;0.80;;
6442;SDS011;3254;47.372;8.512;2022-08-21T13:55:53;1.23;;;1.00;;
6442;SDS011;3254;47.372;8.512;2022-08-21T13:58:24;1.00;;;0.80;;
6442;SDS011;3254;47.372;8.512;2022-08-21T14:00:52;1.10;;;0.80;;
6442;SDS011;3254;47.372;8.512;2022-08-21T14:03:27;3.90;;;1.37;;
6442;SDS011;3254;47.372;8.512;2022-08-21T14:06:23;0.83;;;0.80;;
6442;SDS011;3254;47.372;8.512;2022-08-21T14:08:52;1.37;;;0.97;;
6442;SDS011;3254;47.372;8.512;2022-08-21T14:11:27;1.50;;;0.80;;
6442;SDS011;3254;47.372;8.512;2022-08-21T14:13:58;1.83;;;0.80;;
6442;SDS011;3254;47.372;8.512;2022-08-21T14:19:24;0.80;;;0.67;;
6442;SDS011;3254;47.372;8.512;2022-08-21T14:21:53;0.70;;;0.60;;
6442;SDS011;3254;47.372;8.512;2022-08-21T14:26:55;0.80;;;0.70;;
6442;SDS011;3254;47.372;8.512;2022-08-21T14:29:26;1.00;;;0.90;;
6442;SDS011;3254;47.372;8.512;2022-08-21T14:31:58;0.90;;;0.90;;
6442;SDS011;3254;47.372;8.512;2022-08-21T14:34:26;1.43;;;0.87;;
6442;SDS011;3254;47.372;8.512;2022-08-21T14:36:53;1.00;;;0.90;;
6442;SDS011;3254;47.372;8.512;2022-08-21T14:39:20;3.77;;;0.60;;
6442;SDS011;3254;47.372;8.512;2022-08-21T14:41:46;1.97;;;0.60;;
6442;SDS011;3254;47.372;8.512;2022-08-21T14:44:14;0.80;;;0.50;;
6442;SDS011;3254;47.372;8.512;2022-08-21T14:46:41;0.90;;;0.90;;
6442;SDS011;3254;47.372;8.512;2022-08-21T14:49:07;0.70;;;0.60;;
6442;SDS011;3254;47.372;8.512;2022-08-21T14:51:33;0.70;;;0.50;;
6442;SDS011;3254;47.372;8.512;2022-08-21T14:53:59;0.80;;;0.60;;
6442;SDS011;3254;47.372;8.512;2022-08-21T14:56:24;0.83;;;0.63;;
6442;SDS011;3254;47.372;8.512;2022-08-21T14:58:50;0.70;;;0.50;;
6442;SDS011;3254;47.372;8.512;2022-08-21T15:01:18;0.90;;;0.50;;
6442;SDS011;3254;47.372;8.512;2022-08-21T15:03:45;6.40;;;1.63;;
6442;SDS011;3254;47.372;8.512;2022-08-21T15:06:13;0.80;;;0.60;;
6442;SDS011;3254;47.372;8.512;2022-08-21T15:08:39;0.70;;;0.60;;
6442;SDS011;3254;47.372;8.512;2022-08-21T15:11:05;0.80;;;0.67;;
6442;SDS011;3254;47.372;8.512;2022-08-21T15:13:31;1.00;;;0.90;;
6442;SDS011;3254;47.372;8.512;2022-08-21T15:15:58;0.70;;;0.60;;
6442;SDS011;3254;47.372;8.512;2022-08-21T15:18:25;1.43;;;0.60;;
6442;SDS011;3254;47.372;8.512;2022-08-21T15:20:52;0.90;;;0.50;;
6442;SDS011;3254;47.372;8.512;2022-08-21T15:23:18;2.40;;;0.60;;
6442;SDS011;3254;47.372;8.512;2022-08-21T15:25:45;0.80;;;0.73;;
6442;SDS011;3254;47.372;8.512;2022-08-21T15:28:13;0.70;;;0.60;;
6442;SDS011;3254;47.372;8.512;2022-08-21T15:30:41;2.00;;;0.70;;
6442;SDS011;3254;47.372;8.512;2022-08-21T15:33:08;0.70;;;0.60;;
6442;SDS011;3254;47.372;8.512;2022-08-21T15:35:34;0.93;;;0.63;;
6442;SDS011;3254;47.372;8.512;2022-08-21T15:38:00;3.27;;;0.80;;
6442;SDS011;3254;47.372;8.512;2022-08-21T15:40:26;1.20;;;0.93;;
6442;SDS011;3254;47.372;8.512;2022-08-21T15:42:59;3.37;;;2.57;;
6442;SDS011;3254;47.372;8.512;2022-08-21T15:45:26;1.07;;;1.07;;
6442;SDS011;3254;47.372;8.512;2022-08-21T15:47:52;0.80;;;0.60;;
6442;SDS011;3254;47.372;8.512;2022-08-21T15:50:19;0.80;;;0.70;;
6442;SDS011;3254;47.372;8.512;2022-08-21T15:52:45;1.13;;;1.07;;
6442;SDS011;3254;47.372;8.512;2022-08-21T15:55:11;2.10;;;0.73;;
6442;SDS011;3254;47.372;8.512;2022-08-21T15:57:37;0.90;;;0.70;;
6442;SDS011;3254;47.372;8.512;2022-08-21T16:00:13;0.80;;;0.67;;
6442;SDS011;3254;47.372;8.512;2022-08-21T16:02:48;1.93;;;1.83;;
6442;SDS011;3254;47.372;8.512;2022-08-21T16:05:20;1.90;;;1.80;;
6442;SDS011;3254;47.372;8.512;2022-08-21T16:07:47;1.00;;;0.90;;
6442;SDS011;3254;47.372;8.512;2022-08-21T16:10:15;1.63;;;1.53;;
6442;SDS011;3254;47.372;8.512;2022-08-21T16:12:47;2.20;;;2.10;;
6442;SDS011;3254;47.372;8.512;2022-08-21T16:15:16;83.20;;;74.43;;
6442;SDS011;3254;47.372;8.512;2022-08-21T16:17:43;12.47;;;11.47;;
6442;SDS011;3254;47.372;8.512;2022-08-21T16:20:13;15.97;;;14.43;;
6442;SDS011;3254;47.372;8.512;2022-08-21T16:22:43;2.57;;;2.47;;
6442;SDS011;3254;47.372;8.512;2022-08-21T16:25:08;6.43;;;3.43;;
6442;SDS011;3254;47.372;8.512;2022-08-21T16:27:34;1.43;;;1.33;;
6442;SDS011;3254;47.372;8.512;2022-08-21T16:30:00;2.10;;;2.00;;
6442;SDS011;3254;47.372;8.512;2022-08-21T16:32:27;1.27;;;1.17;;
6442;SDS011;3254;47.372;8.512;2022-08-21T16:34:53;1.67;;;1.47;;
6442;SDS011;3254;47.372;8.512;2022-08-21T16:37:20;1.17;;;1.00;;
6442;SDS011;3254;47.372;8.512;2022-08-21T16:39:46;1.20;;;1.10;;